Time;durP1;ratioP1;P1;durP2;ratioP2;P2;SDS_P1;SDS_P2;PMS_P1;PMS_P2;Temp;Humidity;BMP_temperature;BMP_pressure;BME280_temperature;BME280_humidity;BME280_pressure;Samples;Min_cycle;Max_cycle;Signal;HPM_P1;HPM_P2
2024/02/23 00:00:30;;;;;;;;;;;;;;;1.12;85.15;96296.84;7396393;19;1824;-66
2024/02/23 00:02:58;;;;;;;;;;;;;;;1.08;85.88;96292.56;7398559;19;1832;-67
2024/02/23 00:05:27;;;;;;;;;;;;;;;1.10;85.20;96296.00;7404006;19;993;-69
2024/02/23 00:07:59;;;;;;;;;;;;;;;1.10;84.42;96288.28;7403550;19;2137;-69
2024/02/23 00:10:27;;;;;;;;;;;;;;;1.05;84.72;96291.75;7401775;19;1873;-69
2024/02/23 00:12:56;;;;;;;;;;;;;;;0.96;84.39;96290.91;7403773;19;1799;-67
2024/02/23 00:15:25;;;;;;;;;;;;;;;0.88;83.97;96287.50;7403676;19;936;-69
2024/02/23 00:17:53;;;;;;;;;;;;;;;0.75;85.76;96290.09;7403296;19;1037;-65
2024/02/23 00:20:22;;;;;;;;;;;;;;;0.83;87.51;96291.81;7403372;19;1818;-66
2024/02/23 00:22:51;;;;;;;;;;;;;;;0.87;87.00;96291.78;7403039;19;1016;-68
2024/02/23 00:25:23;;;;;;;;;;;;;;;0.91;86.67;96284.91;7403435;19;1083;-66
2024/02/23 00:27:51;;;;;;;;;;;;;;;0.92;86.29;96281.47;7402959;19;1076;-68
2024/02/23 00:30:20;;;;;;;;;;;;;;;0.87;85.96;96291.78;7401883;19;1833;-68
2024/02/23 00:32:48;;;;;;;;;;;;;;;0.89;85.65;96291.78;7403216;19;1055;-66
2024/02/23 00:35:17;;;;;;;;;;;;;;;0.86;84.96;96278.91;7402632;19;1065;-68
2024/02/23 00:37:45;;;;;;;;;;;;;;;0.81;85.79;96278.09;7401952;19;1111;-66
2024/02/23 00:40:15;;;;;;;;;;;;;;;0.74;85.66;96282.38;7401389;19;1101;-65
2024/02/23 00:42:46;;;;;;;;;;;;;;;0.62;87.39;96284.16;7402765;19;1035;-66
2024/02/23 00:45:15;;;;;;;;;;;;;;;0.57;89.79;96282.44;7402297;19;1099;-69
2024/02/23 00:47:43;;;;;;;;;;;;;;;0.60;90.71;96272.97;7402184;19;1061;-66
2024/02/23 00:50:12;;;;;;;;;;;;;;;0.60;89.76;96264.44;7401500;19;1837;-69
2024/02/23 00:52:41;;;;;;;;;;;;;;;0.50;90.08;96268.72;7402469;19;1806;-65
2024/02/23 00:55:10;;;;;;;;;;;;;;;0.54;91.22;96260.13;7402243;19;2032;-65
2024/02/23 00:57:38;;;;;;;;;;;;;;;0.61;90.62;96258.41;7402181;19;1914;-66
2024/02/23 01:00:12;;;;;;;;;;;;;;;0.65;89.74;96251.50;7401720;19;1053;-68
2024/02/23 01:02:40;;;;;;;;;;;;;;;0.70;88.83;96257.50;7402322;19;1181;-67
2024/02/23 01:05:10;;;;;;;;;;;;;;;0.71;88.45;96252.38;7401913;19;1891;-64
2024/02/23 01:07:39;;;;;;;;;;;;;;;0.69;88.63;96256.66;7401607;19;1112;-70
2024/02/23 01:10:09;;;;;;;;;;;;;;;0.72;89.17;96256.63;7400943;19;1849;-65
2024/02/23 01:12:38;;;;;;;;;;;;;;;0.75;88.92;96258.34;7401838;19;1012;-68
2024/02/23 01:15:07;;;;;;;;;;;;;;;0.67;89.08;96258.38;7400626;19;1033;-66
2024/02/23 01:17:38;;;;;;;;;;;;;;;0.62;89.31;96253.25;7401559;19;1907;-68
2024/02/23 01:20:07;;;;;;;;;;;;;;;0.67;88.90;96249.81;7401660;19;1040;-70
2024/02/23 01:22:36;;;;;;;;;;;;;;;0.64;88.24;96255.81;7401070;19;1025;-67
2024/02/23 01:25:04;;;;;;;;;;;;;;;0.63;88.22;96256.66;7401433;19;1239;-68
2024/02/23 01:27:33;;;;;;;;;;;;;;;0.60;87.74;96254.13;7401391;19;1059;-66
2024/02/23 01:30:01;;;;;;;;;;;;;;;0.59;87.55;96252.38;7400263;19;1923;-67
2024/02/23 01:32:30;;;;;;;;;;;;;;;0.58;87.24;96253.25;7401601;19;1694;-72
2024/02/23 01:35:01;;;;;;;;;;;;;;;0.58;86.75;96255.84;7400978;19;1798;-67
2024/02/23 01:37:30;;;;;;;;;;;;;;;0.45;87.72;96248.13;7400988;19;1138;-68
2024/02/23 01:39:58;;;;;;;;;;;;;;;0.31;88.85;96249.91;7400063;19;1798;-66
2024/02/23 01:42:27;;;;;;;;;;;;;;;0.32;91.78;96249.03;7400546;19;958;-67
2024/02/23 01:44:56;;;;;;;;;;;;;;;0.38;92.09;96246.44;7400371;19;1068;-69
2024/02/23 01:47:25;;;;;;;;;;;;;;;0.34;90.93;96235.31;7400273;19;1005;-66
2024/02/23 01:49:54;;;;;;;;;;;;;;;0.24;90.56;96231.06;7399906;19;1848;-68
2024/02/23 01:52:25;;;;;;;;;;;;;;;0.25;90.21;96227.59;7400473;19;1811;-66
2024/02/23 01:54:53;;;;;;;;;;;;;;;0.27;90.60;96227.59;7399971;19;1128;-66
2024/02/23 01:57:23;;;;;;;;;;;;;;;0.28;91.33;96224.16;7400377;19;1025;-68
2024/02/23 01:59:52;;;;;;;;;;;;;;;0.28;92.10;96231.88;7400172;19;1032;-70
2024/02/23 02:02:21;;;;;;;;;;;;;;;0.34;93.82;96219.88;7399728;19;1116;-66
2024/02/23 02:04:49;;;;;;;;;;;;;;;0.43;93.23;96215.56;7399771;19;1045;-67
2024/02/23 02:07:18;;;;;;;;;;;;;;;0.48;92.36;96216.41;7399710;19;1044;-64
2024/02/23 02:09:49;;;;;;;;;;;;;;;0.50;91.63;96214.66;7400037;19;1849;-66
2024/02/23 02:12:17;;;;;;;;;;;;;;;0.49;91.17;96212.97;7399486;19;1136;-68
2024/02/23 02:14:46;;;;;;;;;;;;;;;0.45;91.66;96211.25;7399621;19;1801;-70
2024/02/23 02:17:14;;;;;;;;;;;;;;;0.49;92.64;96213.78;7399563;19;1799;-68
2024/02/23 02:19:48;;;;;;;;;;;;;;;0.61;91.91;96223.19;7399522;19;1916;-67
2024/02/23 02:22:16;;;;;;;;;;;;;;;0.66;90.88;96219.78;7399143;19;1041;-67
2024/02/23 02:24:46;;;;;;;;;;;;;;;0.71;90.81;96226.59;7398147;19;1033;-65
2024/02/23 02:27:17;;;;;;;;;;;;;;;0.74;90.66;96234.31;7397945;19;966;-65
2024/02/23 02:29:46;;;;;;;;;;;;;;;0.78;91.08;96235.16;7398833;19;927;-65
2024/02/23 02:32:14;;;;;;;;;;;;;;;0.86;91.28;96236.00;7396956;19;1843;-66
2024/02/23 02:34:43;;;;;;;;;;;;;;;0.83;91.23;96236.00;7399077;19;1927;-65
2024/02/23 02:37:11;;;;;;;;;;;;;;;0.84;91.18;96239.44;7399465;19;1640;-65
2024/02/23 02:42:38;;;;;;;;;;;;;;;0.70;90.66;96232.63;7395079;19;1106;-66
2024/02/23 02:45:07;;;;;;;;;;;;;;;0.70;89.97;96231.75;7398344;19;1092;-63
2024/02/23 02:47:36;;;;;;;;;;;;;;;0.56;89.65;96221.50;7398750;19;946;-66
2024/02/23 02:50:06;;;;;;;;;;;;;;;0.45;90.08;96221.56;7398482;19;1862;-69
2024/02/23 02:52:34;;;;;;;;;;;;;;;0.44;90.12;96220.69;7398131;19;1103;-65
2024/02/23 02:55:03;;;;;;;;;;;;;;;0.43;89.75;96220.69;7398468;19;1009;-69
2024/02/23 02:57:32;;;;;;;;;;;;;;;0.44;90.20;96217.25;7398417;19;953;-71
2024/02/23 03:00:04;;;;;;;;;;;;;;;0.47;90.00;96220.69;7398246;19;965;-67
2024/02/23 03:02:33;;;;;;;;;;;;;;;0.49;90.21;96224.09;7398381;19;1021;-62
2024/02/23 03:05:01;;;;;;;;;;;;;;;0.48;90.19;96214.66;7398071;19;980;-67
2024/02/23 03:07:30;;;;;;;;;;;;;;;0.51;90.87;96211.22;7398123;19;1047;-69
2024/02/23 03:09:58;;;;;;;;;;;;;;;0.59;92.04;96211.19;7397830;19;1902;-72
2024/02/23 03:12:27;;;;;;;;;;;;;;;0.69;92.12;96215.44;7396315;19;1855;-65
2024/02/23 03:14:55;;;;;;;;;;;;;;;0.71;92.00;96208.59;7397529;19;1060;-64
2024/02/23 03:17:26;;;;;;;;;;;;;;;0.76;92.81;96206.00;7397435;19;1029;-69
2024/02/23 03:19:55;;;;;;;;;;;;;;;0.78;93.08;96208.56;7397798;19;969;-68
2024/02/23 03:22:23;;;;;;;;;;;;;;;0.75;93.51;96215.44;7397290;19;1824;-65
2024/02/23 03:24:52;;;;;;;;;;;;;;;0.79;93.81;96216.28;7397158;19;1944;-66
2024/02/23 03:27:21;;;;;;;;;;;;;;;0.78;93.49;96226.59;7397560;19;1017;-64
2024/02/23 03:29:49;;;;;;;;;;;;;;;0.74;92.20;96225.72;7397791;19;1657;-63
2024/02/23 03:32:19;;;;;;;;;;;;;;;0.71;91.99;96231.75;7395821;19;1841;-67
2024/02/23 03:34:50;;;;;;;;;;;;;;;0.69;91.92;96218.03;7396783;19;1119;-63
2024/02/23 03:37:18;;;;;;;;;;;;;;;0.67;91.30;96217.19;7396161;19;1964;-67
2024/02/23 03:39:48;;;;;;;;;;;;;;;0.67;91.21;96214.63;7396988;19;1903;-65
2024/02/23 03:42:16;;;;;;;;;;;;;;;0.66;90.65;96215.47;7395187;19;1147;-66
2024/02/23 03:44:45;;;;;;;;;;;;;;;0.69;91.30;96219.75;7396624;19;1076;-61
2024/02/23 03:47:13;;;;;;;;;;;;;;;0.64;91.02;96222.34;7396508;19;1210;-68
2024/02/23 03:49:42;;;;;;;;;;;;;;;0.53;91.38;96222.38;7396877;19;981;-70
2024/02/23 03:52:13;;;;;;;;;;;;;;;0.47;91.38;96215.53;7395334;19;1853;-68
2024/02/23 03:54:42;;;;;;;;;;;;;;;0.45;91.95;96219.81;7396183;19;1041;-65
2024/02/23 03:57:10;;;;;;;;;;;;;;;0.54;92.52;96212.94;7396710;19;1036;-69
2024/02/23 03:59:41;;;;;;;;;;;;;;;0.54;91.79;96218.09;7396569;19;929;-71
2024/02/23 04:02:09;;;;;;;;;;;;;;;0.55;91.17;96212.94;7396114;19;1017;-66
2024/02/23 04:04:38;;;;;;;;;;;;;;;0.53;90.46;96214.66;7396494;19;1830;-63
2024/02/23 04:07:06;;;;;;;;;;;;;;;0.45;89.94;96204.38;7396380;19;1032;-68
2024/02/23 04:09:37;;;;;;;;;;;;;;;0.32;90.10;96210.41;7396187;19;1921;-64
2024/02/23 04:12:07;;;;;;;;;;;;;;;0.30;91.21;96207.00;7394890;19;1837;-64
2024/02/23 04:14:36;;;;;;;;;;;;;;;0.30;91.00;96213.00;7396207;19;1001;-64
2024/02/23 04:17:05;;;;;;;;;;;;;;;0.33;91.26;96207.00;7395871;19;1029;-70
2024/02/23 04:19:33;;;;;;;;;;;;;;;0.28;91.44;96203.56;7396219;19;969;-63
2024/02/23 04:22:02;;;;;;;;;;;;;;;0.29;91.36;96203.56;7395765;19;1052;-66
2024/02/23 04:24:30;;;;;;;;;;;;;;;0.32;90.87;96194.97;7395837;19;1870;-65
2024/02/23 04:27:02;;;;;;;;;;;;;;;0.32;90.48;96195.84;7395623;19;1123;-66
2024/02/23 04:29:30;;;;;;;;;;;;;;;0.33;90.17;96200.13;7395386;19;1001;-68
2024/02/23 04:31:59;;;;;;;;;;;;;;;0.36;89.67;96200.13;7394258;19;2056;-67
2024/02/23 04:34:27;;;;;;;;;;;;;;;0.32;89.78;96197.56;7395709;19;1112;-68
2024/02/23 04:36:56;;;;;;;;;;;;;;;0.32;90.03;96205.28;7395899;19;1737;-66
2024/02/23 04:39:24;;;;;;;;;;;;;;;0.31;89.37;96212.16;7395057;19;1384;-69
2024/02/23 04:41:53;;;;;;;;;;;;;;;0.25;89.76;96215.56;7393706;19;1967;-69
2024/02/23 04:44:25;;;;;;;;;;;;;;;0.00;89.77;96214.81;7395015;19;1009;-69
2024/02/23 04:46:54;;;;;;;;;;;;;;;-0.08;90.33;96219.06;7395004;19;1017;-68
2024/02/23 04:49:22;;;;;;;;;;;;;;;-0.16;90.36;96209.66;7398818;19;1150;-69
2024/02/23 04:51:50;;;;;;;;;;;;;;;-0.18;90.34;96203.66;7401076;19;1861;-69
2024/02/23 04:54:19;;;;;;;;;;;;;;;-0.16;89.84;96207.09;7402514;19;950;-62
2024/02/23 04:56:47;;;;;;;;;;;;;;;-0.14;89.74;96207.09;7402390;19;1063;-69
2024/02/23 04:59:16;;;;;;;;;;;;;;;-0.17;89.90;96205.38;7401945;19;1045;-64
2024/02/23 05:01:47;;;;;;;;;;;;;;;-0.15;90.00;96205.38;7402265;19;1044;-65
2024/02/23 05:04:15;;;;;;;;;;;;;;;-0.18;90.85;96205.38;7401749;19;1026;-67
2024/02/23 05:06:45;;;;;;;;;;;;;;;-0.18;90.88;96206.22;7401596;19;1095;-68
2024/02/23 05:09:13;;;;;;;;;;;;;;;-0.23;92.17;96209.66;7401896;19;1676;-66
2024/02/23 05:11:42;;;;;;;;;;;;;;;-0.22;91.85;96211.38;7400424;19;1850;-65
2024/02/23 05:14:11;;;;;;;;;;;;;;;-0.21;91.65;96219.06;7401333;19;1084;-69
2024/02/23 05:16:39;;;;;;;;;;;;;;;-0.10;92.54;96219.06;7401639;19;1922;-69
2024/02/23 05:19:11;;;;;;;;;;;;;;;-0.05;92.09;96216.50;7401649;19;961;-68
2024/02/23 05:21:39;;;;;;;;;;;;;;;-0.12;91.88;96215.63;7401296;19;1040;-63
2024/02/23 05:24:08;;;;;;;;;;;;;;;-0.09;91.55;96223.34;7401241;19;1057;-67
2024/02/23 05:26:36;;;;;;;;;;;;;;;-0.07;91.63;96220.78;7401003;19;1084;-65
2024/02/23 05:29:05;;;;;;;;;;;;;;;-0.05;91.41;96225.09;7400947;19;1036;-69
2024/02/23 05:31:54;;;;;;;;;;;;;;;-0.02;90.93;96222.50;7400515;19;1837;-66
2024/02/23 05:34:25;;;;;;;;;;;;;;;0.04;90.73;96231.06;7400575;19;1014;-68
2024/02/23 05:36:54;;;;;;;;;;;;;;;0.01;90.56;96231.94;7400741;19;1061;-66
2024/02/23 05:39:22;;;;;;;;;;;;;;;0.01;90.88;96225.94;7401407;19;1160;-63
2024/02/23 05:41:54;;;;;;;;;;;;;;;0.07;90.78;96228.50;7398167;19;1175;-66
2024/02/23 05:44:22;;;;;;;;;;;;;;;0.19;91.27;96232.75;7400386;19;1242;-69
2024/02/23 05:46:51;;;;;;;;;;;;;;;0.83;92.99;96232.56;7400949;19;984;-68
2024/02/23 05:49:19;;;;;;;;;;;;;;;1.99;89.48;96228.38;7401000;19;1761;-67
2024/02/23 05:51:50;;;;;;;;;;;;;;;3.20;81.63;96234.78;7399885;19;1839;-65
2024/02/23 05:54:19;;;;;;;;;;;;;;;4.40;75.48;96235.50;7400085;19;1072;-66
2024/02/23 05:56:48;;;;;;;;;;;;;;;5.42;69.77;96242.97;7400595;19;977;-68
2024/02/23 05:59:17;;;;;;;;;;;;;;;6.46;64.62;96254.38;7399908;19;1076;-64
2024/02/23 06:01:45;;;;;;;;;;;;;;;7.59;61.27;96255.56;7400087;19;1112;-72
2024/02/23 06:04:14;;;;;;;;;;;;;;;8.72;58.04;96259.78;7400739;19;1743;-67
2024/02/23 06:06:44;;;;;;;;;;;;;;;9.75;52.48;96244.72;7400326;19;1056;-67
2024/02/23 06:09:15;;;;;;;;;;;;;;;10.61;49.62;96255.22;7400211;19;1895;-70
2024/02/23 06:11:44;;;;;;;;;;;;;;;11.44;48.18;96239.34;7399195;19;1845;-66
2024/02/23 06:14:12;;;;;;;;;;;;;;;12.25;45.85;96253.03;7399711;19;1067;-70
2024/02/23 06:16:40;;;;;;;;;;;;;;;13.08;43.63;96252.38;7399780;19;1781;-65
2024/02/23 06:19:09;;;;;;;;;;;;;;;13.79;42.23;96253.94;7399645;19;1040;-68
2024/02/23 06:21:38;;;;;;;;;;;;;;;14.50;42.19;96251.69;7399702;19;1730;-67
2024/02/23 06:24:08;;;;;;;;;;;;;;;15.31;41.32;96256.59;7399655;19;960;-66
2024/02/23 06:26:39;;;;;;;;;;;;;;;15.99;40.47;96259.44;7399642;19;1188;-73
2024/02/23 06:29:11;;;;;;;;;;;;;;;16.73;37.58;96259.00;7399041;19;1512;-70
2024/02/23 06:31:39;;;;;;;;;;;;;;;17.37;36.48;96262.63;7398641;19;1841;-65
2024/02/23 06:34:08;;;;;;;;;;;;;;;18.03;35.65;96268.63;7399451;19;1016;-66
2024/02/23 06:36:37;;;;;;;;;;;;;;;18.05;35.10;96274.63;7398874;19;1045;-67
2024/02/23 06:39:05;;;;;;;;;;;;;;;18.45;34.91;96270.88;7399221;19;953;-67
2024/02/23 06:41:34;;;;;;;;;;;;;;;18.80;34.41;96271.84;7398242;19;1887;-72
2024/02/23 06:44:05;;;;;;;;;;;;;;;19.26;33.90;96266.69;7398615;19;1009;-70
2024/02/23 06:46:33;;;;;;;;;;;;;;;19.79;32.87;96266.06;7398573;19;1068;-69
2024/02/23 06:49:02;;;;;;;;;;;;;;;20.32;32.23;96261.00;7398666;19;1883;-68
2024/02/23 06:51:30;;;;;;;;;;;;;;;20.62;31.69;96264.72;7398557;19;1879;-67
2024/02/23 06:53:59;;;;;;;;;;;;;;;20.78;30.79;96266.97;7398635;19;1609;-69
2024/02/23 06:56:27;;;;;;;;;;;;;;;21.25;30.37;96270.22;7398284;19;1944;-65
2024/02/23 06:58:56;;;;;;;;;;;;;;;21.76;30.41;96273.81;7398429;19;1898;-70
2024/02/23 07:01:27;;;;;;;;;;;;;;;22.22;30.11;96276.03;7398439;19;1907;-70
2024/02/23 07:03:55;;;;;;;;;;;;;;;22.74;30.11;96274.94;7398528;19;953;-70
2024/02/23 07:06:24;;;;;;;;;;;;;;;23.14;29.75;96273.06;7398652;19;1722;-71
2024/02/23 07:08:54;;;;;;;;;;;;;;;23.65;28.96;96283.47;7397945;19;933;-69
2024/02/23 07:11:23;;;;;;;;;;;;;;;23.53;28.63;96269.47;7396615;19;1091;-67
2024/02/23 07:13:52;;;;;;;;;;;;;;;23.94;28.25;96268.28;7396042;19;1849;-67
2024/02/23 07:16:20;;;;;;;;;;;;;;;24.24;28.12;96263.63;7397723;19;1095;-68
2024/02/23 07:18:51;;;;;;;;;;;;;;;24.06;28.39;96260.91;7397579;19;1897;-66
2024/02/23 07:21:20;;;;;;;;;;;;;;;23.85;28.89;96265.53;7397668;19;1041;-67
2024/02/23 07:23:49;;;;;;;;;;;;;;;23.91;28.58;96266.75;7397878;19;985;-69
2024/02/23 07:26:19;;;;;;;;;;;;;;;23.86;28.81;96269.03;7397582;19;1862;-69
2024/02/23 07:28:48;;;;;;;;;;;;;;;23.75;28.56;96269.22;7397279;19;1089;-70
2024/02/23 07:31:16;;;;;;;;;;;;;;;23.29;29.56;96264.59;7397151;19;1128;-69
2024/02/23 07:33:45;;;;;;;;;;;;;;;22.87;29.88;96255.97;7395523;19;1858;-71
2024/02/23 07:36:19;;;;;;;;;;;;;;;23.08;29.47;96263.81;7397387;19;1706;-70
2024/02/23 07:38:47;;;;;;;;;;;;;;;23.44;29.32;96265.84;7397393;19;1012;-70
2024/02/23 07:41:17;;;;;;;;;;;;;;;23.63;29.00;96263.25;7396235;19;1151;-63
2024/02/23 07:43:46;;;;;;;;;;;;;;;23.22;29.58;96265.19;7396760;19;1079;-70
2024/02/23 07:46:16;;;;;;;;;;;;;;;22.91;30.34;96265.38;7394886;19;1895;-68
2024/02/23 07:48:45;;;;;;;;;;;;;;;23.50;29.42;96259.06;7396637;19;1025;-70
2024/02/23 07:51:13;;;;;;;;;;;;;;;24.38;28.12;96264.94;7396641;19;1123;-71
2024/02/23 07:53:44;;;;;;;;;;;;;;;24.33;28.37;96259.22;7395354;19;1846;-63
2024/02/23 07:56:12;;;;;;;;;;;;;;;23.87;28.69;96268.03;7396467;19;1139;-72
2024/02/23 07:58:41;;;;;;;;;;;;;;;23.31;29.33;96270.63;7396788;19;1052;-71
2024/02/23 08:01:09;;;;;;;;;;;;;;;22.56;30.59;96262.31;7396389;19;1123;-74
2024/02/23 08:03:38;;;;;;;;;;;;;;;22.11;31.41;96268.16;7396286;19;1061;-71
2024/02/23 08:06:06;;;;;;;;;;;;;;;21.85;31.01;96269.47;7396606;19;1895;-67
2024/02/23 08:08:35;;;;;;;;;;;;;;;21.38;31.38;96267.31;7396091;19;1041;-72
2024/02/23 08:11:07;;;;;;;;;;;;;;;20.81;32.29;96264.06;7396468;19;1012;-75
2024/02/23 08:13:35;;;;;;;;;;;;;;;20.10;33.92;96265.41;7394361;19;1853;-68
2024/02/23 08:16:04;;;;;;;;;;;;;;;19.55;34.07;96259.09;7396306;19;1709;-72
2024/02/23 08:18:32;;;;;;;;;;;;;;;19.24;35.80;96261.50;7394143;19;1335;-68
2024/02/23 08:21:02;;;;;;;;;;;;;;;18.63;35.41;96250.13;7395831;19;1052;-70
2024/02/23 08:23:31;;;;;;;;;;;;;;;18.12;37.72;96251.28;7396576;19;1157;-67
2024/02/23 08:26:00;;;;;;;;;;;;;;;17.85;37.91;96249.66;7403739;19;1004;-70
2024/02/23 08:28:31;;;;;;;;;;;;;;;17.68;37.62;96249.91;7403124;19;1111;-70
2024/02/23 08:31:00;;;;;;;;;;;;;;;17.43;39.17;96249.00;7403123;19;1242;-66
2024/02/23 08:33:28;;;;;;;;;;;;;;;17.25;39.04;96255.59;7401454;19;1853;-62
2024/02/23 08:35:57;;;;;;;;;;;;;;;16.92;39.72;96250.69;7403146;19;1880;-67
2024/02/23 08:38:25;;;;;;;;;;;;;;;16.87;40.48;96244.88;7403010;19;1823;-65
2024/02/23 08:40:54;;;;;;;;;;;;;;;17.03;38.63;96247.31;7402219;19;1135;-66
2024/02/23 08:43:22;;;;;;;;;;;;;;;17.31;38.12;96247.22;7402976;19;957;-71
2024/02/23 08:46:02;;;;;;;;;;;;;;;17.26;39.49;96244.06;7402438;19;1021;-67
2024/02/23 08:48:30;;;;;;;;;;;;;;;17.17;38.83;96248.19;7402574;19;1060;-74
2024/02/23 08:50:59;;;;;;;;;;;;;;;16.91;37.39;96238.44;7402829;19;966;-69
2024/02/23 08:53:27;;;;;;;;;;;;;;;16.82;39.29;96243.50;7401489;19;1860;-66
2024/02/23 08:55:56;;;;;;;;;;;;;;;16.67;39.15;96244.44;7402342;19;1844;-68
2024/02/23 08:58:24;;;;;;;;;;;;;;;16.39;39.54;96243.66;7402113;19;1497;-65
2024/02/23 09:00:53;;;;;;;;;;;;;;;16.44;38.58;96239.84;7402889;19;1660;-69
2024/02/23 09:03:24;;;;;;;;;;;;;;;16.36;39.08;96235.94;7402389;19;957;-68
2024/02/23 09:05:52;;;;;;;;;;;;;;;16.40;40.14;96240.06;7401903;19;1946;-71
2024/02/23 09:08:21;;;;;;;;;;;;;;;16.57;38.08;96242.50;7402046;19;1801;-63
2024/02/23 09:10:49;;;;;;;;;;;;;;;16.44;39.07;96235.44;7402571;19;1739;-69
2024/02/23 09:13:18;;;;;;;;;;;;;;;16.36;40.32;96243.84;7400642;19;1842;-73
2024/02/23 09:15:46;;;;;;;;;;;;;;;16.39;40.23;96235.72;7401551;19;1136;-69
2024/02/23 09:18:15;;;;;;;;;;;;;;;16.55;38.96;96234.69;7401453;19;931;-69
2024/02/23 09:20:46;;;;;;;;;;;;;;;16.73;38.66;96234.38;7401628;19;1797;-67
2024/02/23 09:23:14;;;;;;;;;;;;;;;16.77;39.43;96231.44;7401189;19;2398;-70
2024/02/23 09:25:43;;;;;;;;;;;;;;;16.75;39.30;96238.63;7401661;19;1039;-66
2024/02/23 09:28:12;;;;;;;;;;;;;;;16.58;36.71;96233.66;7401030;19;1109;-67
2024/02/23 09:30:40;;;;;;;;;;;;;;;16.51;37.00;96225.28;7400978;19;1108;-71
2024/02/23 09:33:09;;;;;;;;;;;;;;;16.65;36.17;96237.56;7400382;19;1842;-72
2024/02/23 09:35:37;;;;;;;;;;;;;;;16.65;38.06;96235.75;7400410;19;1924;-66
2024/02/23 09:38:08;;;;;;;;;;;;;;;16.54;36.63;96240.94;7401123;19;1824;-68
2024/02/23 09:40:37;;;;;;;;;;;;;;;16.55;36.39;96242.59;7400785;19;1092;-70
2024/02/23 09:43:06;;;;;;;;;;;;;;;16.58;35.78;96234.47;7399090;19;1393;-71
2024/02/23 09:45:34;;;;;;;;;;;;;;;16.72;35.44;96235.34;7401014;19;957;-70
2024/02/23 09:48:03;;;;;;;;;;;;;;;16.62;36.04;96232.50;7401118;19;1738;-69
2024/02/23 09:50:32;;;;;;;;;;;;;;;16.61;35.39;96231.63;7400636;19;1896;-71
2024/02/23 09:53:01;;;;;;;;;;;;;;;16.85;34.58;96225.63;7400332;19;1837;-63
2024/02/23 09:55:32;;;;;;;;;;;;;;;16.72;34.77;96216.84;7400224;19;2257;-73
2024/02/23 09:58:01;;;;;;;;;;;;;;;16.63;40.30;96219.19;7400129;19;2281;-70
2024/02/23 10:00:30;;;;;;;;;;;;;;;16.46;39.72;96215.03;7400040;19;1060;-72
2024/02/23 10:02:58;;;;;;;;;;;;;;;16.36;39.71;96219.25;7400814;19;1771;-67
2024/02/23 10:05:32;;;;;;;;;;;;;;;16.36;40.25;96222.72;7399954;19;1037;-68
2024/02/23 10:08:00;;;;;;;;;;;;;;;16.17;37.23;96218.66;7399826;19;1111;-73
2024/02/23 10:10:35;;;;;;;;;;;;;;;16.14;38.57;96205.66;7400218;19;1004;-69
2024/02/23 10:13:04;;;;;;;;;;;;;;;16.36;38.08;96209.53;7399033;19;1866;-68
2024/02/23 10:15:33;;;;;;;;;;;;;;;16.47;38.00;96207.97;7399466;19;989;-71
2024/02/23 10:18:02;;;;;;;;;;;;;;;16.38;36.46;96204.97;7399402;19;1218;-67
2024/02/23 10:20:30;;;;;;;;;;;;;;;16.38;35.19;96209.44;7399702;19;1933;-73
2024/02/23 10:22:59;;;;;;;;;;;;;;;16.61;36.08;96201.75;7399386;19;954;-68
2024/02/23 10:25:27;;;;;;;;;;;;;;;16.66;33.70;96197.88;7399233;19;1169;-70
2024/02/23 10:27:59;;;;;;;;;;;;;;;16.73;38.16;96190.34;7399569;19;1012;-62
2024/02/23 10:30:29;;;;;;;;;;;;;;;16.39;38.98;96200.56;7399148;19;1013;-71
2024/02/23 10:32:58;;;;;;;;;;;;;;;16.15;39.98;96190.69;7398922;19;1839;-71
2024/02/23 10:35:27;;;;;;;;;;;;;;;16.20;40.84;96185.13;7399368;19;1913;-71
2024/02/23 10:37:57;;;;;;;;;;;;;;;16.22;40.12;96186.69;7399102;19;870;-66
2024/02/23 10:43:27;;;;;;;;;;;;;;;16.35;41.78;96180.59;7394770;19;1290;-71
2024/02/23 10:45:56;;;;;;;;;;;;;;;16.44;39.88;96173.88;7397518;19;1084;-72
2024/02/23 10:48:25;;;;;;;;;;;;;;;16.64;38.71;96172.50;7398343;19;966;-73
2024/02/23 10:50:54;;;;;;;;;;;;;;;16.54;39.61;96174.94;7398454;19;1033;-71
2024/02/23 10:53:23;;;;;;;;;;;;;;;16.60;38.94;96166.59;7398007;19;1858;-71
2024/02/23 10:55:54;;;;;;;;;;;;;;;16.45;39.04;96162.34;7398271;19;1123;-68
2024/02/23 10:58:26;;;;;;;;;;;;;;;16.23;38.97;96155.88;7398559;19;950;-68
2024/02/23 11:01:02;;;;;;;;;;;;;;;16.06;40.31;96152.59;7398133;19;1124;-67
2024/02/23 11:03:31;;;;;;;;;;;;;;;16.23;40.88;96150.63;7398433;19;1055;-67
2024/02/23 11:06:00;;;;;;;;;;;;;;;16.32;40.00;96155.28;7398430;19;1040;-68
2024/02/23 11:08:32;;;;;;;;;;;;;;;16.27;39.41;96155.59;7398305;19;961;-66
2024/02/23 11:11:09;;;;;;;;;;;;;;;16.27;39.29;96149.44;7397776;19;1046;-66
2024/02/23 11:13:41;;;;;;;;;;;;;;;16.26;38.49;96147.78;7397351;19;1841;-64
2024/02/23 11:16:11;;;;;;;;;;;;;;;16.20;38.66;96145.53;7398114;19;1020;-68
2024/02/23 11:18:40;;;;;;;;;;;;;;;16.28;40.06;96149.34;7397492;19;1323;-71
2024/02/23 11:21:11;;;;;;;;;;;;;;;16.29;38.91;96144.94;7397799;19;1901;-67
2024/02/23 11:23:44;;;;;;;;;;;;;;;16.42;41.17;96143.16;7397320;19;1099;-70
2024/02/23 11:26:12;;;;;;;;;;;;;;;16.49;38.34;96145.34;7397791;19;1001;-75
2024/02/23 11:28:50;;;;;;;;;;;;;;;16.47;39.72;96140.19;7397699;19;1174;-65
2024/02/23 11:31:21;;;;;;;;;;;;;;;16.50;38.16;96134.69;7397356;19;1183;-70
2024/02/23 11:33:53;;;;;;;;;;;;;;;16.46;39.56;96140.31;7396376;19;1838;-65
2024/02/23 11:36:24;;;;;;;;;;;;;;;16.52;37.98;96138.06;7397171;19;1064;-70
2024/02/23 11:38:55;;;;;;;;;;;;;;;16.49;37.67;96143.56;7397302;19;1020;-67
2024/02/23 11:41:24;;;;;;;;;;;;;;;16.47;37.93;96134.91;7396866;19;1077;-70
2024/02/23 11:43:55;;;;;;;;;;;;;;;16.62;38.46;96134.81;7395579;19;1157;-65
2024/02/23 11:46:24;;;;;;;;;;;;;;;16.58;37.15;96128.88;7396650;19;1069;-66
2024/02/23 11:48:54;;;;;;;;;;;;;;;16.52;36.88;96140.72;7396602;19;1841;-64
2024/02/23 11:51:23;;;;;;;;;;;;;;;16.71;37.92;96130.69;7396677;19;1033;-72
2024/02/23 11:53:52;;;;;;;;;;;;;;;16.83;36.35;96123.69;7396358;19;1841;-63
2024/02/23 11:56:21;;;;;;;;;;;;;;;16.86;35.86;96116.38;7396989;19;1063;-71
2024/02/23 11:58:50;;;;;;;;;;;;;;;16.66;36.99;96131.84;7401917;19;1895;-71
2024/02/23 12:01:21;;;;;;;;;;;;;;;16.73;37.32;96119.06;7404281;19;1799;-68
2024/02/23 12:03:49;;;;;;;;;;;;;;;16.84;36.48;96115.66;7404582;19;1004;-63
2024/02/23 12:06:18;;;;;;;;;;;;;;;16.83;36.25;96106.06;7403823;19;1005;-71
2024/02/23 12:08:46;;;;;;;;;;;;;;;16.76;35.48;96120.63;7404096;19;1174;-63
2024/02/23 12:11:15;;;;;;;;;;;;;;;16.69;36.19;96117.59;7404021;19;1808;-66
2024/02/23 12:13:44;;;;;;;;;;;;;;;16.56;36.45;96109.69;7403072;19;1850;-68
2024/02/23 12:16:13;;;;;;;;;;;;;;;16.60;36.20;96111.16;7403522;19;1115;-69
2024/02/23 12:18:44;;;;;;;;;;;;;;;16.68;35.97;96100.06;7403757;19;1838;-67
2024/02/23 12:21:13;;;;;;;;;;;;;;;16.62;37.18;96103.13;7403405;19;1029;-69
2024/02/23 12:23:45;;;;;;;;;;;;;;;16.68;36.90;96100.88;7403676;19;957;-66
2024/02/23 12:26:15;;;;;;;;;;;;;;;16.75;36.63;96103.09;7403168;19;1029;-70
2024/02/23 12:28:44;;;;;;;;;;;;;;;16.77;36.72;96103.84;7403056;19;1112;-69
2024/02/23 12:31:12;;;;;;;;;;;;;;;16.73;35.53;96107.63;7402977;19;1143;-67
2024/02/23 12:33:47;;;;;;;;;;;;;;;16.74;35.58;96101.44;7402750;19;1832;-67
2024/02/23 12:36:16;;;;;;;;;;;;;;;16.63;35.27;96103.00;7402851;19;1226;-66
2024/02/23 12:38:44;;;;;;;;;;;;;;;16.52;36.07;96102.91;7402772;19;1092;-69
2024/02/23 12:41:14;;;;;;;;;;;;;;;16.65;35.21;96090.53;7403181;19;968;-65
2024/02/23 12:43:42;;;;;;;;;;;;;;;16.68;34.83;96092.97;7400980;19;1123;-65
2024/02/23 12:46:14;;;;;;;;;;;;;;;16.73;35.97;96092.66;7402945;19;1016;-74
2024/02/23 12:48:45;;;;;;;;;;;;;;;16.79;34.69;96092.22;7402603;19;1076;-70
2024/02/23 12:51:13;;;;;;;;;;;;;;;16.79;35.07;96089.56;7402423;19;1147;-67
2024/02/23 12:53:43;;;;;;;;;;;;;;;16.79;34.87;96091.38;7401787;19;1843;-66
2024/02/23 12:56:13;;;;;;;;;;;;;;;16.90;34.02;96088.81;7402144;19;1033;-66
2024/02/23 12:58:42;;;;;;;;;;;;;;;16.91;35.05;96092.28;7402026;19;1073;-67
2024/02/23 13:01:11;;;;;;;;;;;;;;;16.89;34.72;96091.56;7402383;19;1863;-69
2024/02/23 13:03:40;;;;;;;;;;;;;;;16.90;34.55;96080.06;7402351;19;1928;-70
2024/02/23 13:06:12;;;;;;;;;;;;;;;16.77;34.32;96083.53;7401930;19;1096;-66
2024/02/23 13:08:42;;;;;;;;;;;;;;;16.73;34.58;96075.94;7401927;19;1052;-69
2024/02/23 13:11:11;;;;;;;;;;;;;;;16.81;34.45;96081.53;7400305;19;1017;-68
2024/02/23 13:13:39;;;;;;;;;;;;;;;16.83;35.16;96079.66;7401812;19;1846;-68
2024/02/23 13:16:08;;;;;;;;;;;;;;;16.78;35.15;96079.13;7401924;19;1904;-69
2024/02/23 13:18:36;;;;;;;;;;;;;;;16.79;35.63;96078.16;7401808;19;1871;-67